Latest Weather Observations for Middle Point

IDD60801

Issued at 11:31 pm CST Friday 4 September 2015 (issued every 30 minutes, with the page automatically refreshed every 10 minutes)

About weather observations | Map of weather stations | Latest weather observations for NT | Other Formats
Station Details ID: 014041 Name: MIDDLE POINT Lat: -12.61 Lon: 131.30 Height: 14.1 m
Data from the previous 72 hours. | See also: Recent months at Middle Point
Date/Time
CST
Temp
°C
App
Temp
°C
Dew
Point
Rel
Hum
%
Delta-T
°C
Wind Press
QNH
hPa
Press
MSL
hPa
Rain
since 9 am
mm
Dir
 
Spd
km/h
Gust
km/h
Spd
kts
Gust
kts
04/11:30pm 23.4 26.0 19.3 78 2.6 WNW 4 6 2 3 1016.5 1016.4 0.0
04/11:00pm 23.5 25.4 19.0 76 2.9 WNW 7 9 4 5 1016.5 1016.4 0.0
04/10:30pm 24.1 26.4 19.8 77 2.8 NW 7 11 4 6 1016.5 1016.4 0.0
04/10:00pm 24.9 27.9 19.3 71 3.6 N 2 4 1 2 1016.1 1016.0 0.0
04/09:30pm 24.8 27.2 19.6 73 3.3 NNW 6 6 3 3 1015.9 1015.8 0.0
04/09:00pm 24.8 27.0 19.2 71 3.6 WNW 6 7 3 4 1015.6 1015.5 0.0
04/08:30pm 25.3 26.8 19.0 68 4.0 WNW 9 13 5 7 1015.3 1015.2 0.0
04/08:00pm 26.4 28.3 19.0 63 4.7 N 7 9 4 5 1014.5 1014.4 0.0
04/07:30pm 26.9 28.3 18.7 60 5.2 N 9 9 5 5 1014.2 1014.1 0.0
04/07:00pm 28.4 29.1 18.8 56 6.2 N 13 20 7 11 1013.8 1013.7 0.0
04/06:30pm 30.0 29.8 18.4 49 7.5 N 17 22 9 12 1013.1 1013.0 0.0
04/06:00pm 31.8 31.8 18.0 43 8.9 N 15 20 8 11 1012.8 1012.7 0.0
04/05:30pm 32.7 32.3 18.1 42 9.4 N 17 22 9 12 1012.6 1012.5 0.0
04/05:00pm 33.5 33.8 18.0 39 10.0 N 13 20 7 11 1012.3 1012.2 0.0
04/04:30pm 34.3 33.8 17.9 37 10.6 N 17 28 9 15 1012.2 1012.1 0.0
04/04:00pm 33.5 33.5 18.0 39 10.0 N 15 20 8 11 1012.2 1012.1 0.0
04/03:30pm 34.7 33.3 13.5 28 12.9 E 13 20 7 11 1012.3 1012.2 0.0
04/03:00pm 35.3 35.1 14.6 29 12.8 ESE 9 17 5 9 1012.8 1012.7 0.0
04/02:30pm 35.7 34.8 13.8 27 13.4 ESE 11 28 6 15 1013.1 1013.0 0.0
04/02:00pm 35.3 33.9 14.6 29 12.8 ENE 15 32 8 17 1013.6 1013.5 0.0
04/01:30pm 35.0 34.5 15.8 31 12.1 E 13 24 7 13 1014.2 1014.1 0.0
04/01:00pm 33.6 33.4 15.6 34 11.3 ESE 11 22 6 12 1014.9 1014.8 0.0
04/12:30pm 32.6 32.7 16.4 37 10.2 E 11 19 6 10 1015.5 1015.4 0.0
04/12:00pm 33.2 34.2 17.8 40 9.9 SE 9 22 5 12 1016.1 1016.0 0.0
04/11:30am 32.0 32.4 18.2 43 8.9 ENE 13 20 7 11 1016.8 1016.7 0.0
04/11:00am 30.5 32.4 18.9 50 7.5 ESE 7 17 4 9 1017.3 1017.2 0.0
04/10:30am 29.8 31.1 19.2 53 6.9 ESE 11 17 6 9 1017.5 1017.4 0.0
04/10:00am 29.1 31.5 19.7 57 6.1 ESE 6 13 3 7 1017.7 1017.6 0.0
04/09:30am 28.7 30.4 19.3 56 6.1 ESE 9 13 5 7 1017.8 1017.7 0.0
04/09:00am 28.1 30.9 20.9 65 4.8 ENE 7 15 4 8 1017.5 1017.4 0.0
04/08:30am 25.4 28.5 21.1 77 2.8 ENE 6 7 3 4 1017.3 1017.2 0.0
04/08:00am 23.2 26.6 20.9 87 1.5 E 4 6 2 3 1017.2 1017.1 0.0
04/07:30am 21.4 24.7 20.0 92 0.9 E 2 2 1 1 1016.9 1016.8 0.0
04/07:00am 19.6 21.8 18.3 92 0.8 ENE 4 6 2 3 1016.5 1016.4 0.0
04/06:30am 19.4 21.5 18.2 93 0.7 N 4 4 2 2 1016.1 1016.0 0.0
04/06:00am 18.8 20.6 17.3 91 0.9 NW 4 4 2 2 1015.5 1015.4 0.0
04/05:30am 19.3 21.1 17.4 89 1.2 NNW 4 4 2 2 1015.4 1015.3 0.0
04/05:00am 20.6 22.7 18.9 90 1.1 NNE 6 7 3 4 1015.4 1015.3 0.0
04/04:30am 21.7 23.8 20.2 91 1.0 NNE 9 11 5 6 1015.4 1015.3 0.0
04/04:00am 21.2 23.1 19.8 92 0.9 NNE 9 11 5 6 1015.2 1015.1 0.0
04/03:30am 21.0 22.9 19.7 92 0.8 NE 9 9 5 5 1015.2 1015.1 0.0
04/03:00am 19.3 21.1 17.4 89 1.2 NW 4 6 2 3 1014.7 1014.6 0.0
04/02:30am 19.6 22.0 17.0 85 1.6 CALM 0 0 0 0 1015.0 1014.9 0.0
04/02:00am 20.3 22.7 17.9 86 1.5 NNE 2 4 1 2 1015.5 1015.4 0.0
04/01:30am 20.6 23.0 18.9 90 1.1 N 4 6 2 3 1015.6 1015.5 0.0
04/01:00am 20.0 22.4 18.0 88 1.2 N 2 7 1 4 1016.0 1015.9 0.0
04/12:30am 20.9 23.5 18.5 86 1.5 N 2 2 1 1 1016.1 1016.0 0.0
04/12:00am 21.0 22.9 18.6 86 1.5 N 6 6 3 3 1016.1 1016.0 0.0
 
Date/Time
CST
Temp
°C
App
Temp
°C
Dew
Point
Rel
Hum
%
Delta-T
°C
Wind Press
QNH
hPa
Press
MSL
hPa
Rain
since 9 am
mm
Dir
 
Spd
km/h
Gust
km/h
Spd
kts
Gust
kts
03/11:30pm 21.8 24.1 19.5 87 1.5 NNE 6 7 3 4 1016.1 1016.0 0.0
03/11:00pm 22.2 24.4 19.7 86 1.6 NNE 7 9 4 5 1015.9 1015.8 0.0
03/10:30pm 22.9 25.9 20.1 84 1.8 N 4 6 2 3 1015.7 1015.6 0.0
03/10:00pm 22.8 25.1 19.4 81 2.2 N 6 7 3 4 1015.4 1015.3 0.0
03/09:30pm 22.8 24.8 18.8 78 2.5 NW 6 6 3 3 1015.3 1015.2 0.0
03/09:00pm 24.2 26.2 19.1 73 3.3 NW 7 9 4 5 1014.9 1014.8 0.0
03/08:30pm 23.8 24.4 15.8 61 4.8 WNW 7 9 4 5 1014.7 1014.6 0.0
03/08:00pm 24.9 25.1 14.7 53 6.1 NW 7 9 4 5 1014.5 1014.4 0.0
03/07:30pm 26.4 26.5 13.9 46 7.4 N 6 7 3 4 1013.9 1013.8 0.0
03/07:00pm 27.8 27.0 13.0 40 8.7 N 9 11 5 6 1013.5 1013.4 0.0
03/06:30pm 29.5 28.1 13.3 37 9.6 N 13 19 7 10 1013.2 1013.1 0.0
03/06:00pm 31.2 29.5 14.8 37 10.0 N 17 26 9 14 1013.0 1012.9 0.0
03/05:30pm 32.3 30.3 14.9 35 10.7 N 19 24 10 13 1012.7 1012.6 0.0
03/05:00pm 33.2 31.1 14.8 33 11.4 N 19 24 10 13 1012.4 1012.3 0.0
03/04:30pm 33.9 31.9 15.4 33 11.5 N 20 28 11 15 1012.2 1012.1 0.0
03/04:00pm 34.7 32.7 16.5 33 11.6 N 22 28 12 15 1012.2 1012.1 0.0
03/03:30pm 35.6 34.5 16.4 32 12.2 NNW 17 28 9 15 1012.2 1012.1 0.0
03/03:00pm 35.3 34.3 16.6 33 11.9 N 17 26 9 14 1012.4 1012.3 0.0
03/02:30pm 34.6 33.9 16.4 33 11.5 NNE 15 22 8 12 1012.6 1012.5 0.0
03/02:00pm 35.4 35.6 15.7 31 12.4 NNE 9 17 5 9 1013.0 1012.9 0.0
03/01:30pm 35.0 34.6 15.3 30 12.3 N 11 20 6 11 1013.5 1013.4 0.0
03/01:00pm 35.2 35.1 13.9 27 13.1 N 7 15 4 8 1014.1 1014.0 0.0
03/12:30pm 34.5 34.4 13.9 29 12.6 NW 7 15 4 8 1014.7 1014.6 0.0
03/12:00pm 33.8 33.3 12.2 27 12.8 E 6 9 3 5 1015.4 1015.3 0.0
03/11:30am 32.7 31.9 12.9 30 11.8 NE 9 17 5 9 1015.9 1015.8 0.0
03/11:00am 32.1 32.0 13.8 33 11.1 N 7 13 4 7 1016.5 1016.4 0.0
03/10:30am 31.8 31.0 11.6 29 11.8 NNW 7 13 4 7 1016.8 1016.7 0.0
03/10:00am 31.5 31.5 13.7 33 10.7 NNW 6 9 3 5 1016.8 1016.7 0.0
03/09:30am 29.4 30.9 17.6 49 7.5 WNW 6 7 3 4 1016.9 1016.8 0.0
03/09:00am 27.8 31.3 21.1 67 4.4 NE 4 6 2 3 1017.0 1016.9 0.0
03/08:30am 25.4 29.4 21.3 78 2.7 NE 2 4 1 2 1016.9 1016.8 0.0
03/08:00am 22.3 25.7 20.2 88 1.4 NE 2 7 1 4 1016.5 1016.4 0.0
03/07:30am 19.3 22.1 18.0 92 0.8 CALM 0 0 0 0 1016.6 1016.5 0.0
03/07:00am 17.8 19.0 15.8 88 1.2 SSW 4 4 2 2 1016.3 1016.2 0.0
03/06:30am 18.7 20.0 17.2 91 0.9 S 6 6 3 3 1015.9 1015.8 0.0
03/06:00am 17.9 19.9 16.1 89 1.1 CALM 0 0 0 0 1015.1 1015.0 0.0
03/05:30am 19.0 20.8 17.3 90 1.0 ESE 4 4 2 2 1014.6 1014.5 0.0
03/05:00am 19.3 21.1 17.4 89 1.2 NE 4 4 2 2 1014.3 1014.2 0.0
03/04:30am 19.1 20.9 17.4 90 1.0 N 4 6 2 3 1014.1 1014.0 0.0
03/04:00am 18.7 20.7 16.1 85 1.5 CALM 0 0 0 0 1014.1 1014.0 0.0
03/03:30am 18.7 20.8 16.3 86 1.4 CALM 0 0 0 0 1014.1 1014.0 0.0
03/03:00am 18.9 20.6 16.1 84 1.7 N 2 2 1 1 1014.3 1014.2 0.0
03/02:30am 19.8 22.2 17.0 84 1.7 CALM 0 0 0 0 1014.4 1014.3 0.0
03/02:00am 20.1 21.9 17.3 84 1.7 NNE 4 4 2 2 1014.5 1014.4 0.0
03/01:30am 20.3 21.7 17.3 83 1.8 NNE 6 7 3 4 1014.7 1014.6 0.0
03/01:00am 20.4 21.7 17.6 84 1.7 NNE 7 9 4 5 1015.0 1014.9 0.0
03/12:30am 20.8 22.1 17.2 80 2.2 NNE 6 6 3 3 1015.0 1014.9 0.0
03/12:00am 20.9 22.1 16.9 78 2.4 N 6 6 3 3 1015.1 1015.0 0.0
 
Date/Time
CST
Temp
°C
App
Temp
°C
Dew
Point
Rel
Hum
%
Delta-T
°C
Wind Press
QNH
hPa
Press
MSL
hPa
Rain
since 9 am
mm
Dir
 
Spd
km/h
Gust
km/h
Spd
kts
Gust
kts
02/11:30pm 22.3 23.7 17.4 74 3.0 NE 6 9 3 5 1015.0 1014.9 0.0
02/11:00pm 21.7 22.8 17.1 75 2.8 NNW 7 9 4 5 1014.9 1014.8 0.0
02/10:30pm 22.9 23.9 16.9 69 3.7 NW 7 9 4 5 1014.6 1014.5 0.0
02/10:00pm 22.7 23.8 17.2 71 3.4 NW 7 9 4 5 1014.3 1014.2 0.0
02/09:30pm 22.7 23.6 16.0 66 4.0 WNW 6 7 3 4 1014.1 1014.0 0.0
02/09:00pm 24.0 25.0 16.3 62 4.7 W 6 6 3 3 1013.8 1013.7 0.0
02/08:30pm 24.6 25.4 15.8 58 5.3 WNW 6 6 3 3 1013.5 1013.4 0.0
02/08:00pm 25.6 26.1 15.6 54 6.1 NW 7 9 4 5 1013.3 1013.2 0.0
02/07:30pm 25.7 26.0 16.0 55 5.9 WNW 9 11 5 6 1012.8 1012.7 0.0
02/07:00pm 27.7 28.0 16.0 49 7.2 NNW 9 11 5 6 1012.3 1012.2 0.0
02/06:30pm 29.1 29.1 15.2 42 8.5 NW 9 13 5 7 1011.9 1011.8 0.0
02/06:00pm 30.9 29.6 14.9 37 9.8 NW 15 20 8 11 1011.6 1011.5 0.0
02/05:30pm 31.8 29.8 14.9 36 10.4 NNW 19 26 10 14 1011.2 1011.1 0.0
02/05:00pm 33.1 31.3 15.6 35 10.9 NNW 19 24 10 13 1010.7 1010.7 0.0
02/04:30pm 33.5 31.3 15.9 34 11.1 NW 22 30 12 16 1010.7 1010.7 0.0
02/04:00pm 34.1 32.5 16.5 35 11.2 NW 20 30 11 16 1010.6 1010.6 0.0
02/03:30pm 34.9 33.2 16.2 32 11.9 N 20 32 11 17 1010.7 1010.7 0.0
02/03:00pm 35.2 34.6 12.2 25 13.8 NE 7 13 4 7 1011.0 1010.9 0.0
02/02:30pm 35.4 34.6 11.7 23 14.1 SSE 7 13 4 7 1011.6 1011.5 0.0
02/02:00pm 35.3 35.1 12.9 26 13.5 SE 6 15 3 8 1012.3 1012.2 0.0
02/01:30pm 35.0 34.3 12.0 25 13.7 SSE 7 15 4 8 1012.8 1012.7 0.0
02/01:00pm 34.5 34.0 12.8 27 13.1 NW 7 13 4 7 1013.4 1013.3 0.0
02/12:30pm 34.1 33.3 14.1 30 12.3 WSW 11 19 6 10 1014.1 1014.0 0.0
02/12:00pm 33.2 32.7 13.8 31 11.8 SW 9 20 5 11 1014.7 1014.6 0.0
02/11:30am 33.3 33.4 13.9 31 11.8 WSW 6 9 3 5 1015.4 1015.3 0.0
02/11:00am 32.1 31.9 14.7 35 10.7 W 9 13 5 7 1015.9 1015.8 0.0
02/10:30am 30.8 31.4 16.8 43 8.8 W 9 17 5 9 1016.3 1016.2 0.0
02/10:00am 29.9 31.4 18.0 48 7.6 SSW 7 11 4 6 1016.6 1016.5 0.0
02/09:30am 29.1 30.5 17.9 50 7.1 W 7 11 4 6 1016.6 1016.5 0.0
02/09:00am 27.1 30.5 19.4 62 5.0 CALM 0 2 0 1 1016.6 1016.5 0.0
02/08:30am 25.0 28.2 20.5 76 2.9 NE 4 6 2 3 1016.4 1016.3 0.0
02/08:00am 22.7 25.9 20.6 88 1.4 ENE 4 6 2 3 1016.1 1016.0 0.0
02/07:30am 19.5 22.4 18.3 93 0.7 CALM 0 0 0 0 1015.8 1015.7 0.0
02/07:00am 18.2 20.6 16.9 92 0.8 CALM 0 0 0 0 1015.4 1015.3 0.0
02/06:30am 18.6 20.4 17.3 92 0.8 E 4 6 2 3 1014.6 1014.5 0.0
02/06:00am 18.1 20.4 16.8 92 0.8 CALM 0 0 0 0 1014.1 1014.0 0.0
02/05:30am 18.9 21.0 17.2 90 1.0 S 2 2 1 1 1013.8 1013.7 0.0
02/05:00am 18.9 20.9 16.9 88 1.2 S 2 4 1 2 1013.9 1013.8 0.0
02/04:30am 19.1 21.6 17.2 89 1.2 CALM 0 4 0 2 1013.8 1013.7 0.0
02/04:00am 19.2 21.7 17.2 88 1.2 CALM 0 0 0 0 1014.0 1013.9 0.0
02/03:30am 19.3 21.9 17.6 90 1.0 CALM 0 0 0 0 1013.9 1013.8 0.0
02/03:00am 18.9 20.7 16.5 86 1.4 NNE 2 2 1 1 1013.8 1013.7 0.0
02/02:30am 20.0 22.8 18.0 88 1.2 CALM 0 0 0 0 1014.1 1014.0 0.0
02/02:00am 20.7 23.5 18.8 89 1.2 N 2 4 1 2 1014.2 1014.1 0.0
02/01:30am 20.6 22.7 18.9 90 1.1 N 6 7 3 4 1014.2 1014.1 0.0
02/01:00am 20.0 21.4 17.4 85 1.6 NNW 6 6 3 3 1014.2 1014.1 0.0
02/12:30am 20.6 22.4 18.2 86 1.5 NNW 6 7 3 4 1014.4 1014.3 0.0
02/12:00am 21.7 23.8 18.9 84 1.8 NW 6 6 3 3 1014.4 1014.3 0.0

Other Formats:

Comma delimited format used in spreadsheet applications
http://www.bom.gov.au/fwo/IDD60801/IDD60801.95121.axf

JavaScript Object Notation format (JSON) in row-major order
http://www.bom.gov.au/fwo/IDD60801/IDD60801.95121.json